Klamath Air Force Station, California
Current Conditions -  °F | °C
As of 5:28 PM on Sunday 21 Dec 2014 (Local Time) from KCEC Reporting Station
Haze Haze  
Wind Chill: 58°   Ceiling: 400
Heat Index: 58°   Visibility: 1.5mi
Dew Point: 58°   Wind: 5mph
Humidity: 100%   Direction: 210°SSW
Pressure: 30.29"   Gusts: NA
Location:  41.6217°N, 123.995°W
Report Text: KCEC 220128Z AUTO 21004KT 1 1/2SM BR OVC004 14/14 A3029 RMK AO2 T01440144
Loading
Personal Weather Stations






























Interactive Weather Map New forecast layout! Learn more

10-Day Weather Forecast

Advertisements
Track Severe Weather on mobile